Mortsel, Belgium
Current Conditions -  °F | °C
As of 5:20 AM on Sunday 23 Nov 2014 (Local Time) from EBAW Reporting Station
Clear Clear  
Wind Chill: 42°   Ceiling: Unl
Heat Index: 45°   Visibility: 2.8mi
Dew Point: 43°   Wind: 5mph
Humidity: 93%   Direction: 130°SE
Pressure: 30"   Gusts: NA
Location:  51.17°N, 4.45°E
Report Text: EBAW 230420Z AUTO 13004KT 4500 NCD 07/06 Q1016
Loading
Personal Weather Stations






























Interactive Weather Map New forecast layout! Learn more

10-Day Weather Forecast

Advertisements
Track Severe Weather on mobile